Houn Maru — JG5489 — position and weather

sailwx.info

Track history (hours):
 
Tides and Currents Weather Stations Pressure Air Temp Water Temp Dewpoint Dewpoint Depression Visibility Wind Speed Wind Dir Waves Ship Positions

Houn Maru

Last reported at 2018-Feb-22 14:28 UTC. Time now 2018-Feb-22 14:40 UTC.
Position N 34°31' E 135°21'.

Length 91 m; draft 6 m.

Type: Tanker. MMSI: 431101172.

Date/timePositionNaut miles runAvg speedWind from/ knotsBaromVisibWave heightAir tempDewpointWater temp
2018-Feb-22 14:28N 34°31' E 135°21'0 0.0
2018-Feb-22 13:58N 34°31' E 135°21'0 0.0
2018-Feb-22 13:28N 34°31' E 135°21'0 0.1
2018-Feb-22 12:58N 34°31' E 135°21'0 0.0
2018-Feb-22 12:28N 34°31' E 135°21'0 0.0
2018-Feb-22 11:58N 34°31' E 135°21'0 0.0
2018-Feb-22 11:28N 34°31' E 135°21'0 0.0
2018-Feb-22 10:58N 34°31' E 135°21'0 0.0
2018-Feb-22 10:28N 34°31' E 135°21'0 0.0
2018-Feb-22 09:58N 34°31' E 135°21'0 0.0
2018-Feb-22 09:28N 34°31' E 135°21'0 0.0
2018-Feb-22 08:58N 34°31' E 135°21'0 0.0
2018-Feb-22 08:28N 34°31' E 135°21'0 0.0
2018-Feb-22 07:58N 34°31' E 135°21'0 0.0
2018-Feb-22 07:28N 34°31' E 135°21'0 0.0
2018-Feb-22 06:58N 34°31' E 135°21'0 0.1
2018-Feb-22 06:29N 34°31' E 135°21'4 8.2
2018-Feb-22 06:00N 34°33' E 135°25'1 1.5
2018-Feb-22 05:28N 34°33' E 135°25'0 0.0
2018-Feb-22 04:58N 34°33' E 135°25'0 0.0
2018-Feb-22 04:25N 34°33' E 135°25'0 0.0
2018-Feb-22 03:58N 34°33' E 135°25'0 0.0
2018-Feb-22 03:28N 34°33' E 135°25'0 0.0
2018-Feb-22 02:58N 34°33' E 135°25'0 0.0
2018-Feb-22 02:28N 34°33' E 135°25'0 0.0
2018-Feb-22 01:58N 34°33' E 135°25'0 0.0
2018-Feb-22 01:28N 34°33' E 135°25'0 0.0
2018-Feb-22 00:58N 34°33' E 135°25'0 0.0
2018-Feb-22 00:28N 34°33' E 135°25'0 0.0
2018-Feb-22 00:01N 34°33' E 135°25'2 3.3
2018-Feb-21 23:31N 34°33' E 135°23'2 4.3
2018-Feb-21 22:58N 34°31' E 135°21'0 0.0
2018-Feb-21 22:25N 34°31' E 135°21'0 0.0
2018-Feb-21 21:58N 34°31' E 135°21'0 0.0
2018-Feb-21 21:28N 34°31' E 135°21'0 0.0
2018-Feb-21 20:58N 34°31' E 135°21'0 0.0
2018-Feb-21 20:28N 34°31' E 135°21'0 0.0
2018-Feb-21 19:58N 34°31' E 135°21'0 0.0
2018-Feb-21 19:28N 34°31' E 135°21'0 0.0
2018-Feb-21 18:58N 34°31' E 135°21'0 0.0
2018-Feb-21 18:25N 34°31' E 135°21'0 0.0
2018-Feb-21 17:58N 34°31' E 135°21'0 0.0
2018-Feb-21 17:28N 34°31' E 135°21'0 0.0
2018-Feb-21 16:58N 34°31' E 135°21'0 0.0
2018-Feb-21 16:28N 34°31' E 135°21'0 0.0
2018-Feb-21 15:58N 34°31' E 135°21'0 0.0
2018-Feb-21 15:28N 34°31' E 135°21'0 0.0
2018-Feb-21 14:58N 34°31' E 135°21'0 0.0
2018-Feb-21 14:28N 34°31' E 135°21'0 0.0
2018-Feb-21 13:58N 34°31' E 135°21'0 0.0
2018-Feb-21 13:28N 34°31' E 135°21'0 0.0
2018-Feb-21 12:58N 34°31' E 135°21'0 0.0
2018-Feb-21 12:28N 34°31' E 135°21'0 0.0
2018-Feb-21 11:58N 34°31' E 135°21'0 0.0
2018-Feb-21 11:28N 34°31' E 135°21'0 0.0
2018-Feb-21 10:58N 34°31' E 135°21'0 0.1
2018-Feb-21 10:28N 34°31' E 135°21'0 0.0
2018-Feb-21 09:58N 34°31' E 135°21'0 0.0
2018-Feb-21 09:28N 34°31' E 135°21'0 0.0
2018-Feb-21 08:58N 34°31' E 135°21'0 0.0
2018-Feb-21 08:28N 34°31' E 135°21'0 0.0
2018-Feb-21 07:58N 34°31' E 135°21'0 0.0
2018-Feb-21 07:28N 34°31' E 135°21'0 0.0
2018-Feb-21 06:58N 34°31' E 135°21'0 0.0
2018-Feb-21 06:28N 34°31' E 135°21'0 0.0
2018-Feb-21 05:58N 34°31' E 135°21'1 3.0
2018-Feb-21 05:30N 34°31' E 135°19'612.7
2018-Feb-21 05:00N 34°27' E 135°13'4 8.1
2018-Feb-21 04:31N 34°23' E 135°13'2 4.4
2018-Feb-21 03:59N 34°25' E 135°14'0 0.0
2018-Feb-21 03:26N 34°25' E 135°14'0 0.0
2018-Feb-21 02:53N 34°25' E 135°14'0 0.0
2018-Feb-21 02:29N 34°25' E 135°14'0 0.0
2018-Feb-21 01:59N 34°25' E 135°14'0 0.0
2018-Feb-21 01:26N 34°25' E 135°14'0 0.0
2018-Feb-21 00:59N 34°25' E 135°14'0 0.0
2018-Feb-21 00:29N 34°25' E 135°14'0 0.8
2018-Feb-21 00:00N 34°25' E 135°14'3 6.6
2018-Feb-20 23:31N 34°25' E 135°10'2 4.0
2018-Feb-20 23:00N 34°24' E 135°09'0 0.0
2018-Feb-20 22:30N 34°24' E 135°09'0 0.0
2018-Feb-20 22:00N 34°24' E 135°09'0 0.0
2018-Feb-20 21:30N 34°24' E 135°09'0 0.0
2018-Feb-20 21:00N 34°24' E 135°09'0 0.0
2018-Feb-20 20:30N 34°24' E 135°09'0 0.0
2018-Feb-20 20:00N 34°24' E 135°09'0 0.0
2018-Feb-20 19:30N 34°24' E 135°09'3 6.9
2018-Feb-20 19:00N 34°27' E 135°07'612.5
2018-Feb-20 18:30N 34°33' E 135°04'612.3
2018-Feb-20 18:01N 34°37' E 134°59'612.5
2018-Feb-20 17:30N 34°35' E 134°52'611.3
2018-Feb-20 17:01N 34°32' E 134°46'611.5
2018-Feb-20 16:31N 34°30' E 134°40'611.6
2018-Feb-20 16:01N 34°28' E 134°33'611.7
2018-Feb-20 15:31N 34°26' E 134°27'611.2
2018-Feb-20 15:00N 34°24' E 134°20'611.3
2018-Feb-20 14:30N 34°24' E 134°13'13 0.5
2018-Feb-19 12:53N 34°26' E 133°58'1413.8
2018-Feb-19 11:53N 34°24' E 134°14'513.3
2018-Feb-19 11:30N 34°25' E 134°20'713.1
2018-Feb-19 11:00N 34°27' E 134°28'612.9
2018-Feb-19 10:30N 34°30' E 134°35'612.7
2018-Feb-19 10:00N 34°32' E 134°42'612.3
2018-Feb-19 09:30N 34°34' E 134°49'611.6
2018-Feb-19 09:00N 34°36' E 134°56'5 9.8
2018-Feb-19 08:30N 34°37' E 135°02'4 8.8
2018-Feb-19 08:00N 34°34' E 135°06'611.8
2018-Feb-19 07:30N 34°29' E 135°08'612.1
2018-Feb-19 07:00N 34°24' E 135°12'2 4.4
2018-Feb-19 06:29N 34°25' E 135°14'0 0.0
2018-Feb-19 05:59N 34°25' E 135°14'0 0.0
2018-Feb-19 05:29N 34°25' E 135°14'0 0.0
2018-Feb-19 04:59N 34°25' E 135°14'0 0.0
2018-Feb-19 04:29N 34°25' E 135°14'0 0.0
2018-Feb-19 03:59N 34°25' E 135°14'0 0.0
2018-Feb-19 03:29N 34°25' E 135°14'0 0.0
2018-Feb-19 02:59N 34°25' E 135°14'0 0.0
2018-Feb-19 02:29N 34°25' E 135°14'0 0.0
2018-Feb-19 02:00N 34°25' E 135°14'0 0.5
2018-Feb-19 01:30N 34°25' E 135°14'4 7.5
2018-Feb-19 01:00N 34°26' E 135°10'611.5
2018-Feb-19 00:31N 34°29' E 135°16'5 9.6
2018-Feb-19 00:01N 34°31' E 135°21'0 0.1
2018-Feb-18 23:30N 34°31' E 135°21'0 0.0
2018-Feb-18 23:00N 34°31' E 135°21'0 0.0
2018-Feb-18 22:30N 34°31' E 135°21'0 0.0
2018-Feb-18 22:00N 34°31' E 135°21'0 0.0
2018-Feb-18 21:30N 34°31' E 135°21'0 0.0
2018-Feb-18 21:00N 34°31' E 135°21'0 0.0
2018-Feb-18 20:30N 34°31' E 135°21'0 0.1
2018-Feb-18 20:00N 34°31' E 135°21'0 0.0
2018-Feb-18 19:30N 34°31' E 135°21'0 0.0
2018-Feb-18 19:00N 34°31' E 135°21'0 0.0
2018-Feb-18 18:30N 34°31' E 135°21'0 0.0
2018-Feb-18 18:00N 34°31' E 135°21'0 0.1
2018-Feb-18 17:30N 34°31' E 135°21'0 0.0
2018-Feb-18 17:00N 34°31' E 135°21'0 0.0
2018-Feb-18 16:30N 34°31' E 135°21'0 0.0
2018-Feb-18 16:00N 34°31' E 135°21'0 0.0
2018-Feb-18 15:30N 34°31' E 135°21'0 0.0
2018-Feb-18 15:00N 34°31' E 135°21'0 0.0
2018-Feb-18 14:30N 34°31' E 135°21'0 0.1
2018-Feb-18 13:57N 34°31' E 135°21'0 0.1
2018-Feb-18 13:30N 34°31' E 135°21'0 0.0
2018-Feb-18 13:00N 34°31' E 135°21'0 0.1
2018-Feb-18 12:30N 34°31' E 135°21'0 0.0
2018-Feb-18 12:00N 34°31' E 135°21'0 0.0
2018-Feb-18 11:30N 34°31' E 135°21'0 0.0
2018-Feb-18 11:00N 34°31' E 135°21'0 0.1
2018-Feb-18 10:30N 34°31' E 135°21'0 0.0
2018-Feb-18 10:00N 34°31' E 135°21'0 0.0
2018-Feb-18 09:27N 34°31' E 135°21'0 0.0
2018-Feb-18 09:00N 34°31' E 135°21'0 0.0
2018-Feb-18 08:27N 34°31' E 135°21'0 0.0
2018-Feb-18 08:00N 34°31' E 135°21'0 0.0
2018-Feb-18 07:30N 34°31' E 135°21'0 0.0
2018-Feb-18 07:00N 34°31' E 135°21'0 0.0
2018-Feb-18 06:30N 34°31' E 135°21'0 0.0
2018-Feb-18 06:00N 34°31' E 135°21'0 0.0
2018-Feb-18 05:30N 34°31' E 135°21'0 0.1
2018-Feb-18 05:00N 34°31' E 135°21'0 0.1
2018-Feb-18 04:30N 34°31' E 135°21'0 0.0
2018-Feb-18 04:00N 34°31' E 135°21'0 0.0
2018-Feb-18 03:30N 34°31' E 135°21'0 0.0
2018-Feb-18 03:00N 34°31' E 135°21'0 0.0
2018-Feb-18 02:30N 34°31' E 135°21'0 0.0
2018-Feb-18 01:57N 34°31' E 135°21'0 0.0
2018-Feb-18 01:30N 34°31' E 135°21'0 0.0
2018-Feb-18 01:00N 34°31' E 135°21'0 0.0
2018-Feb-18 00:30N 34°31' E 135°21'0 0.0
2018-Feb-18 00:00N 34°31' E 135°21'0 0.0
2018-Feb-17 23:30N 34°31' E 135°21'0 0.1
2018-Feb-17 23:00N 34°31' E 135°21'0 0.0
2018-Feb-17 22:30N 34°31' E 135°21'0 0.0
2018-Feb-17 22:00N 34°31' E 135°21'0 0.0
2018-Feb-17 21:30N 34°31' E 135°21'0 0.0
2018-Feb-17 21:00N 34°31' E 135°21'0 0.0
2018-Feb-17 20:27N 34°31' E 135°21'0 0.0
2018-Feb-17 20:00N 34°31' E 135°21'0 0.0
2018-Feb-17 19:30N 34°31' E 135°21'0 0.0
2018-Feb-17 19:00N 34°31' E 135°21'0 0.0
2018-Feb-17 18:30N 34°31' E 135°21'0 0.0
2018-Feb-17 18:00N 34°31' E 135°21'0 0.0
2018-Feb-17 17:30N 34°31' E 135°21'0 0.0
2018-Feb-17 17:00N 34°31' E 135°21'0 0.0
2018-Feb-17 16:30N 34°31' E 135°21'0 0.0
2018-Feb-17 16:00N 34°31' E 135°21'0 0.1
2018-Feb-17 15:30N 34°31' E 135°21'0 0.1
2018-Feb-17 15:00N 34°31' E 135°21'0 0.1
2018-Feb-17 14:30N 34°31' E 135°21'0 0.0
2018-Feb-17 14:00N 34°31' E 135°21'0 0.0
2018-Feb-17 13:30N 34°31' E 135°21'0 0.0
2018-Feb-17 13:00N 34°31' E 135°21'0 0.0
2018-Feb-17 12:30N 34°31' E 135°21'0 0.0
2018-Feb-17 12:00N 34°31' E 135°21'0 0.0
2018-Feb-17 11:30N 34°31' E 135°21'0 0.0
2018-Feb-17 11:00N 34°31' E 135°21'0 0.0
2018-Feb-17 10:30N 34°31' E 135°21'0 0.0
2018-Feb-17 10:00N 34°31' E 135°21'0 0.0
2018-Feb-17 09:30N 34°31' E 135°21'0 0.0
2018-Feb-17 09:00N 34°31' E 135°21'0 0.0
2018-Feb-17 08:30N 34°31' E 135°21'0 0.0
2018-Feb-17 08:00N 34°31' E 135°21'0 0.0
2018-Feb-17 07:30N 34°31' E 135°21'0 0.0
2018-Feb-17 06:57N 34°31' E 135°21'0 0.0
2018-Feb-17 06:30N 34°31' E 135°21'0 0.0
2018-Feb-17 06:00N 34°31' E 135°21'0 0.1
2018-Feb-17 05:30N 34°31' E 135°21'0 0.0
2018-Feb-17 05:00N 34°31' E 135°21'0 0.0
2018-Feb-17 04:30N 34°31' E 135°21'0 0.0
2018-Feb-17 04:00N 34°31' E 135°21'0 0.0
2018-Feb-17 03:30N 34°31' E 135°21'0 0.0
2018-Feb-17 03:00N 34°31' E 135°21'0 0.0
2018-Feb-17 02:30N 34°31' E 135°21'0 0.0
2018-Feb-17 02:00N 34°31' E 135°21'0 0.0
2018-Feb-17 01:30N 34°31' E 135°21'0 0.0
2018-Feb-17 01:00N 34°31' E 135°21'0 0.0
2018-Feb-17 00:30N 34°31' E 135°21'0 0.0
2018-Feb-17 00:00N 34°31' E 135°21'0 0.1
2018-Feb-16 23:30N 34°31' E 135°21'0 0.0
2018-Feb-16 23:00N 34°31' E 135°21'0 0.0
2018-Feb-16 22:30N 34°31' E 135°21'0 0.0
2018-Feb-16 22:00N 34°31' E 135°21'0 0.0
2018-Feb-16 21:30N 34°31' E 135°21'0 0.1
2018-Feb-16 21:00N 34°31' E 135°21'0 0.0
2018-Feb-16 20:30N 34°31' E 135°21'0 0.1
2018-Feb-16 19:57N 34°31' E 135°21'0 0.0
2018-Feb-16 19:30N 34°31' E 135°21'0 0.1
2018-Feb-16 19:00N 34°31' E 135°21'0 0.0
2018-Feb-16 18:30N 34°31' E 135°21'0 0.0
2018-Feb-16 18:00N 34°31' E 135°21'0 0.0
2018-Feb-16 17:30N 34°31' E 135°21'0 0.0
2018-Feb-16 17:00N 34°31' E 135°21'0 0.0
2018-Feb-16 16:30N 34°31' E 135°21'0 0.0
2018-Feb-16 16:00N 34°31' E 135°21'0 0.0
2018-Feb-16 15:30N 34°31' E 135°21'0 0.0
2018-Feb-16 15:00N 34°31' E 135°21'0 0.0
2018-Feb-16 14:30N 34°31' E 135°21'0 0.0
2018-Feb-16 14:00N 34°31' E 135°21'0 0.0
2018-Feb-16 13:29N 34°31' E 135°21'0 0.0
2018-Feb-16 13:00N 34°31' E 135°21'0 0.0
2018-Feb-16 12:30N 34°31' E 135°21'0 0.0
2018-Feb-16 12:00N 34°31' E 135°21'0 0.0
2018-Feb-16 11:30N 34°31' E 135°21'0 0.0
2018-Feb-16 11:00N 34°31' E 135°21'0 0.1
2018-Feb-16 10:30N 34°31' E 135°21'0 0.1
2018-Feb-16 10:00N 34°31' E 135°21'0 0.0
2018-Feb-16 09:29N 34°31' E 135°21'0 0.1
2018-Feb-16 09:00N 34°31' E 135°21'0 0.0
2018-Feb-16 08:30N 34°31' E 135°21'0 0.0
2018-Feb-16 07:59N 34°31' E 135°21'0 0.0
2018-Feb-16 07:30N 34°31' E 135°21'0 0.0
2018-Feb-16 07:00N 34°31' E 135°21'0 0.1
2018-Feb-16 06:30N 34°31' E 135°21'0 0.6
2018-Feb-16 06:00N 34°31' E 135°21'4 7.3
2018-Feb-16 05:30N 34°33' E 135°25'0 0.6
2018-Feb-16 04:55N 34°33' E 135°25'0 0.0
2018-Feb-16 04:25N 34°33' E 135°25'0 0.0
2018-Feb-16 03:58N 34°33' E 135°25'0 0.0
2018-Feb-16 03:28N 34°33' E 135°25'0 0.0
2018-Feb-16 02:58N 34°33' E 135°25'0 0.0
2018-Feb-16 02:28N 34°33' E 135°25'0 0.0
2018-Feb-16 01:58N 34°33' E 135°25'0 0.0
2018-Feb-16 01:28N 34°33' E 135°25'0 0.0
2018-Feb-16 00:58N 34°33' E 135°25'0 0.0
2018-Feb-16 00:28N 34°33' E 135°25'0 0.0
2018-Feb-15 23:58N 34°33' E 135°25'0 0.0
2018-Feb-15 23:28N 34°33' E 135°25'1 1.8
2018-Feb-15 23:00N 34°33' E 135°25'4 8.0
2018-Feb-15 22:31N 34°31' E 135°21'0 0.1
2018-Feb-15 22:00N 34°31' E 135°21'0 0.0
2018-Feb-15 21:30N 34°31' E 135°21'0 0.0
2018-Feb-15 21:00N 34°31' E 135°21'0 0.0
2018-Feb-15 20:30N 34°31' E 135°21'0 0.0
2018-Feb-15 20:00N 34°31' E 135°21'0 0.0
2018-Feb-15 19:30N 34°31' E 135°21'0 0.0
2018-Feb-15 19:00N 34°31' E 135°21'0 0.0
2018-Feb-15 18:30N 34°31' E 135°21'0 0.0
2018-Feb-15 18:00N 34°31' E 135°21'0 0.0
2018-Feb-15 17:30N 34°31' E 135°21'0 0.0
2018-Feb-15 17:00N 34°31' E 135°21'0 0.0
2018-Feb-15 16:30N 34°31' E 135°21'0 0.0
2018-Feb-15 16:00N 34°31' E 135°21'0 0.0
2018-Feb-15 15:30N 34°31' E 135°21'0 0.0
2018-Feb-15 15:00N 34°31' E 135°21'0 0.0
2018-Feb-15 14:30N 34°31' E 135°21'0 0.0
2018-Feb-15 14:00N 34°31' E 135°21'0 0.0
2018-Feb-15 13:30N 34°31' E 135°21'0 0.0
2018-Feb-15 12:57N 34°31' E 135°21'0 0.0
2018-Feb-15 12:30N 34°31' E 135°21'0 0.0
2018-Feb-15 12:00N 34°31' E 135°21'0 0.0
2018-Feb-15 11:27N 34°31' E 135°21'0 0.0
2018-Feb-15 11:00N 34°31' E 135°21'0 0.0
2018-Feb-15 10:30N 34°31' E 135°21'0 0.0
2018-Feb-15 10:00N 34°31' E 135°21'0 0.0
2018-Feb-15 09:30N 34°31' E 135°21'0 0.2
2018-Feb-15 09:00N 34°31' E 135°21'0 0.1
2018-Feb-15 08:30N 34°31' E 135°21'0 0.0
2018-Feb-15 07:57N 34°31' E 135°21'0 0.0
2018-Feb-15 07:30N 34°31' E 135°21'0 0.0
2018-Feb-15 07:00N 34°31' E 135°21'0 0.0
2018-Feb-15 06:24N 34°31' E 135°21'0 0.2
2018-Feb-15 06:00N 34°31' E 135°21'0 0.1
2018-Feb-15 05:30N 34°31' E 135°21'4 7.3
2018-Feb-15 05:00N 34°29' E 135°17'612.9
2018-Feb-15 04:30N 34°26' E 135°10'3 6.9
2018-Feb-15 04:00N 34°25' E 135°14'0 0.3
2018-Feb-15 03:28N 34°25' E 135°14'0 0.0
2018-Feb-15 02:58N 34°25' E 135°14'0 0.0
2018-Feb-15 02:28N 34°25' E 135°14'0 0.0
2018-Feb-15 01:58N 34°25' E 135°14'0 0.0
2018-Feb-15 01:28N 34°25' E 135°14'0 0.0
2018-Feb-15 00:58N 34°25' E 135°14'0 0.0
2018-Feb-15 00:28N 34°25' E 135°14'0 0.4
2018-Feb-15 00:00N 34°25' E 135°14'3 5.5
2018-Feb-14 23:30N 34°25' E 135°11'2 4.0
2018-Feb-14 22:59N 34°24' E 135°09'0 0.0
2018-Feb-14 22:29N 34°24' E 135°09'0 0.0
2018-Feb-14 21:59N 34°24' E 135°09'0 0.0
2018-Feb-14 21:29N 34°24' E 135°09'0 0.0
2018-Feb-14 20:59N 34°24' E 135°09'0 0.0
2018-Feb-14 20:29N 34°24' E 135°09'0 0.0
2018-Feb-14 19:59N 34°24' E 135°09'0 0.1
2018-Feb-14 19:29N 34°24' E 135°09'0 0.1
2018-Feb-14 18:59N 34°24' E 135°09'0 0.0
2018-Feb-14 18:29N 34°24' E 135°09'0 0.0
2018-Feb-14 17:59N 34°24' E 135°09'0 0.0
2018-Feb-14 17:29N 34°24' E 135°09'0 0.4
2018-Feb-14 17:00N 34°24' E 135°09'611.1
2018-Feb-14 16:30N 34°29' E 135°06'713.5
2018-Feb-14 16:00N 34°35' E 135°03'612.8
2018-Feb-14 15:30N 34°36' E 134°55'713.5
2018-Feb-14 15:01N 34°33' E 134°48'612.5
2018-Feb-14 14:31N 34°31' E 134°41'612.4
2018-Feb-14 14:00N 34°28' E 134°34'612.1
2018-Feb-14 13:30N 34°26' E 134°27'612.0
2018-Feb-14 13:00N 34°24' E 134°21'611.9
2018-Feb-14 12:31N 34°24' E 134°13'2 0.1
2018-Feb-13 11:26N 34°24' E 134°16'612.5
2018-Feb-13 10:59N 34°25' E 134°23'612.8
2018-Feb-13 10:30N 34°28' E 134°30'612.2
2018-Feb-13 10:00N 34°30' E 134°37'612.0
2018-Feb-13 09:30N 34°32' E 134°43'612.0
2018-Feb-13 09:01N 34°35' E 134°50'612.2
2018-Feb-13 08:30N 34°37' E 134°57'510.5
2018-Feb-13 08:00N 34°36' E 135°03'510.5
2018-Feb-13 07:30N 34°32' E 135°07'611.8
2018-Feb-13 07:00N 34°26' E 135°09'4 8.1
2018-Feb-13 06:31N 34°25' E 135°14'0 1.0
2018-Feb-13 06:00N 34°25' E 135°14'0 0.0
2018-Feb-13 05:30N 34°25' E 135°14'0 0.0
2018-Feb-13 05:00N 34°25' E 135°14'0 0.0
2018-Feb-13 04:30N 34°25' E 135°14'0 0.0
2018-Feb-13 04:00N 34°25' E 135°14'0 0.0
2018-Feb-13 03:30N 34°25' E 135°14'0 0.0
2018-Feb-13 02:57N 34°25' E 135°14'0 0.0
2018-Feb-13 02:27N 34°25' E 135°14'0 0.0
2018-Feb-13 02:00N 34°25' E 135°14'0 0.6
2018-Feb-13 01:30N 34°25' E 135°14'3 6.8
2018-Feb-13 01:00N 34°26' E 135°10'611.3
2018-Feb-13 00:30N 34°29' E 135°16'4 9.0
2018-Feb-13 00:00N 34°31' E 135°21'0 0.2
2018-Feb-12 23:29N 34°31' E 135°21'0 0.0
2018-Feb-12 23:00N 34°31' E 135°21'0 0.0
2018-Feb-12 22:29N 34°31' E 135°21'0 0.0
2018-Feb-12 21:56N 34°31' E 135°21'0 0.0
2018-Feb-12 21:29N 34°31' E 135°21'0 0.0
2018-Feb-12 20:59N 34°31' E 135°21'0 0.0
2018-Feb-12 20:30N 34°31' E 135°21'0 0.0
2018-Feb-12 19:59N 34°31' E 135°21'0 0.0
2018-Feb-12 19:29N 34°31' E 135°21'0 0.0
2018-Feb-12 18:56N 34°31' E 135°21'0 0.0
2018-Feb-12 18:26N 34°31' E 135°21'0 0.0
2018-Feb-12 17:59N 34°31' E 135°21'0 0.0
2018-Feb-12 17:29N 34°31' E 135°21'0 0.0
2018-Feb-12 16:59N 34°31' E 135°21'0 0.0
2018-Feb-12 16:26N 34°31' E 135°21'0 0.1
2018-Feb-12 15:59N 34°31' E 135°21'0 0.0
2018-Feb-12 15:17N 34°31' E 135°21'0 0.0
2018-Feb-12 14:59N 34°31' E 135°21'0 0.0
2018-Feb-12 14:29N 34°31' E 135°21'  
Track history (hours):
 
Tides and Currents Weather Stations Pressure Air Temp Water Temp Dewpoint Dewpoint Depression Visibility Wind Speed Wind Dir Waves Ship Positions

Houn Maru

Last reported at 2018-Feb-22 14:28 UTC. Time now 2018-Feb-22 14:40 UTC.
Position N 34°31' E 135°21'.

Length 91 m; draft 6 m.

Type: Tanker. MMSI: 431101172.

Date/timePositionNaut miles runAvg speedWind from/ knotsBaromVisibWave heightAir tempDewpointWater temp
2018-Feb-22 14:28N 34°31' E 135°21'0 0.0
2018-Feb-22 13:58N 34°31' E 135°21'0 0.0
2018-Feb-22 13:28N 34°31' E 135°21'0 0.1
2018-Feb-22 12:58N 34°31' E 135°21'0 0.0
2018-Feb-22 12:28N 34°31' E 135°21'0 0.0
2018-Feb-22 11:58N 34°31' E 135°21'0 0.0
2018-Feb-22 11:28N 34°31' E 135°21'0 0.0
2018-Feb-22 10:58N 34°31' E 135°21'0 0.0
2018-Feb-22 10:28N 34°31' E 135°21'0 0.0
2018-Feb-22 09:58N 34°31' E 135°21'0 0.0
2018-Feb-22 09:28N 34°31' E 135°21'0 0.0
2018-Feb-22 08:58N 34°31' E 135°21'0 0.0
2018-Feb-22 08:28N 34°31' E 135°21'0 0.0
2018-Feb-22 07:58N 34°31' E 135°21'0 0.0
2018-Feb-22 07:28N 34°31' E 135°21'0 0.0
2018-Feb-22 06:58N 34°31' E 135°21'0 0.1
2018-Feb-22 06:29N 34°31' E 135°21'4 8.2
2018-Feb-22 06:00N 34°33' E 135°25'1 1.5
2018-Feb-22 05:28N 34°33' E 135°25'0 0.0
2018-Feb-22 04:58N 34°33' E 135°25'0 0.0
2018-Feb-22 04:25N 34°33' E 135°25'0 0.0
2018-Feb-22 03:58N 34°33' E 135°25'0 0.0
2018-Feb-22 03:28N 34°33' E 135°25'0 0.0
2018-Feb-22 02:58N 34°33' E 135°25'0 0.0
2018-Feb-22 02:28N 34°33' E 135°25'0 0.0
2018-Feb-22 01:58N 34°33' E 135°25'0 0.0
2018-Feb-22 01:28N 34°33' E 135°25'0 0.0
2018-Feb-22 00:58N 34°33' E 135°25'0 0.0
2018-Feb-22 00:28N 34°33' E 135°25'0 0.0
2018-Feb-22 00:01N 34°33' E 135°25'2 3.3
2018-Feb-21 23:31N 34°33' E 135°23'2 4.3
2018-Feb-21 22:58N 34°31' E 135°21'0 0.0
2018-Feb-21 22:25N 34°31' E 135°21'0 0.0
2018-Feb-21 21:58N 34°31' E 135°21'0 0.0
2018-Feb-21 21:28N 34°31' E 135°21'0 0.0
2018-Feb-21 20:58N 34°31' E 135°21'0 0.0
2018-Feb-21 20:28N 34°31' E 135°21'0 0.0
2018-Feb-21 19:58N 34°31' E 135°21'0 0.0
2018-Feb-21 19:28N 34°31' E 135°21'0 0.0
2018-Feb-21 18:58N 34°31' E 135°21'0 0.0
2018-Feb-21 18:25N 34°31' E 135°21'0 0.0
2018-Feb-21 17:58N 34°31' E 135°21'0 0.0
2018-Feb-21 17:28N 34°31' E 135°21'0 0.0
2018-Feb-21 16:58N 34°31' E 135°21'0 0.0
2018-Feb-21 16:28N 34°31' E 135°21'0 0.0
2018-Feb-21 15:58N 34°31' E 135°21'0 0.0
2018-Feb-21 15:28N 34°31' E 135°21'0 0.0
2018-Feb-21 14:58N 34°31' E 135°21'0 0.0
2018-Feb-21 14:28N 34°31' E 135°21'0 0.0
2018-Feb-21 13:58N 34°31' E 135°21'0 0.0
2018-Feb-21 13:28N 34°31' E 135°21'0 0.0
2018-Feb-21 12:58N 34°31' E 135°21'0 0.0
2018-Feb-21 12:28N 34°31' E 135°21'0 0.0
2018-Feb-21 11:58N 34°31' E 135°21'0 0.0
2018-Feb-21 11:28N 34°31' E 135°21'0 0.0
2018-Feb-21 10:58N 34°31' E 135°21'0 0.1
2018-Feb-21 10:28N 34°31' E 135°21'0 0.0
2018-Feb-21 09:58N 34°31' E 135°21'0 0.0
2018-Feb-21 09:28N 34°31' E 135°21'0 0.0
2018-Feb-21 08:58N 34°31' E 135°21'0 0.0
2018-Feb-21 08:28N 34°31' E 135°21'0 0.0
2018-Feb-21 07:58N 34°31' E 135°21'0 0.0
2018-Feb-21 07:28N 34°31' E 135°21'0 0.0
2018-Feb-21 06:58N 34°31' E 135°21'0 0.0
2018-Feb-21 06:28N 34°31' E 135°21'0 0.0
2018-Feb-21 05:58N 34°31' E 135°21'1 3.0
2018-Feb-21 05:30N 34°31' E 135°19'612.7
2018-Feb-21 05:00N 34°27' E 135°13'4 8.1
2018-Feb-21 04:31N 34°23' E 135°13'2 4.4
2018-Feb-21 03:59N 34°25' E 135°14'0 0.0
2018-Feb-21 03:26N 34°25' E 135°14'0 0.0
2018-Feb-21 02:53N 34°25' E 135°14'0 0.0
2018-Feb-21 02:29N 34°25' E 135°14'0 0.0
2018-Feb-21 01:59N 34°25' E 135°14'0 0.0
2018-Feb-21 01:26N 34°25' E 135°14'0 0.0
2018-Feb-21 00:59N 34°25' E 135°14'0 0.0
2018-Feb-21 00:29N 34°25' E 135°14'0 0.8
2018-Feb-21 00:00N 34°25' E 135°14'3 6.6
2018-Feb-20 23:31N 34°25' E 135°10'2 4.0
2018-Feb-20 23:00N 34°24' E 135°09'0 0.0
2018-Feb-20 22:30N 34°24' E 135°09'0 0.0
2018-Feb-20 22:00N 34°24' E 135°09'0 0.0
2018-Feb-20 21:30N 34°24' E 135°09'0 0.0
2018-Feb-20 21:00N 34°24' E 135°09'0 0.0
2018-Feb-20 20:30N 34°24' E 135°09'0 0.0
2018-Feb-20 20:00N 34°24' E 135°09'0 0.0
2018-Feb-20 19:30N 34°24' E 135°09'3 6.9
2018-Feb-20 19:00N 34°27' E 135°07'612.5
2018-Feb-20 18:30N 34°33' E 135°04'612.3
2018-Feb-20 18:01N 34°37' E 134°59'612.5
2018-Feb-20 17:30N 34°35' E 134°52'611.3
2018-Feb-20 17:01N 34°32' E 134°46'611.5
2018-Feb-20 16:31N 34°30' E 134°40'611.6
2018-Feb-20 16:01N 34°28' E 134°33'611.7
2018-Feb-20 15:31N 34°26' E 134°27'611.2
2018-Feb-20 15:00N 34°24' E 134°20'611.3
2018-Feb-20 14:30N 34°24' E 134°13'13 0.5
2018-Feb-19 12:53N 34°26' E 133°58'1413.8
2018-Feb-19 11:53N 34°24' E 134°14'513.3
2018-Feb-19 11:30N 34°25' E 134°20'713.1
2018-Feb-19 11:00N 34°27' E 134°28'612.9
2018-Feb-19 10:30N 34°30' E 134°35'612.7
2018-Feb-19 10:00N 34°32' E 134°42'612.3
2018-Feb-19 09:30N 34°34' E 134°49'611.6
2018-Feb-19 09:00N 34°36' E 134°56'5 9.8
2018-Feb-19 08:30N 34°37' E 135°02'4 8.8
2018-Feb-19 08:00N 34°34' E 135°06'611.8
2018-Feb-19 07:30N 34°29' E 135°08'612.1
2018-Feb-19 07:00N 34°24' E 135°12'2 4.4
2018-Feb-19 06:29N 34°25' E 135°14'0 0.0
2018-Feb-19 05:59N 34°25' E 135°14'0 0.0
2018-Feb-19 05:29N 34°25' E 135°14'0 0.0
2018-Feb-19 04:59N 34°25' E 135°14'0 0.0
2018-Feb-19 04:29N 34°25' E 135°14'0 0.0
2018-Feb-19 03:59N 34°25' E 135°14'0 0.0
2018-Feb-19 03:29N 34°25' E 135°14'0 0.0
2018-Feb-19 02:59N 34°25' E 135°14'0 0.0
2018-Feb-19 02:29N 34°25' E 135°14'0 0.0
2018-Feb-19 02:00N 34°25' E 135°14'0 0.5
2018-Feb-19 01:30N 34°25' E 135°14'4 7.5
2018-Feb-19 01:00N 34°26' E 135°10'611.5
2018-Feb-19 00:31N 34°29' E 135°16'5 9.6
2018-Feb-19 00:01N 34°31' E 135°21'0 0.1
2018-Feb-18 23:30N 34°31' E 135°21'0 0.0
2018-Feb-18 23:00N 34°31' E 135°21'0 0.0
2018-Feb-18 22:30N 34°31' E 135°21'0 0.0
2018-Feb-18 22:00N 34°31' E 135°21'0 0.0
2018-Feb-18 21:30N 34°31' E 135°21'0 0.0
2018-Feb-18 21:00N 34°31' E 135°21'0 0.0
2018-Feb-18 20:30N 34°31' E 135°21'0 0.1
2018-Feb-18 20:00N 34°31' E 135°21'0 0.0
2018-Feb-18 19:30N 34°31' E 135°21'0 0.0
2018-Feb-18 19:00N 34°31' E 135°21'0 0.0
2018-Feb-18 18:30N 34°31' E 135°21'0 0.0
2018-Feb-18 18:00N 34°31' E 135°21'0 0.1
2018-Feb-18 17:30N 34°31' E 135°21'0 0.0
2018-Feb-18 17:00N 34°31' E 135°21'0 0.0
2018-Feb-18 16:30N 34°31' E 135°21'0 0.0
2018-Feb-18 16:00N 34°31' E 135°21'0 0.0
2018-Feb-18 15:30N 34°31' E 135°21'0 0.0
2018-Feb-18 15:00N 34°31' E 135°21'0 0.0
2018-Feb-18 14:30N 34°31' E 135°21'0 0.1
2018-Feb-18 13:57N 34°31' E 135°21'0 0.1
2018-Feb-18 13:30N 34°31' E 135°21'0 0.0
2018-Feb-18 13:00N 34°31' E 135°21'0 0.1
2018-Feb-18 12:30N 34°31' E 135°21'0 0.0
2018-Feb-18 12:00N 34°31' E 135°21'0 0.0
2018-Feb-18 11:30N 34°31' E 135°21'0 0.0
2018-Feb-18 11:00N 34°31' E 135°21'0 0.1
2018-Feb-18 10:30N 34°31' E 135°21'0 0.0
2018-Feb-18 10:00N 34°31' E 135°21'0 0.0
2018-Feb-18 09:27N 34°31' E 135°21'0 0.0
2018-Feb-18 09:00N 34°31' E 135°21'0 0.0
2018-Feb-18 08:27N 34°31' E 135°21'0 0.0
2018-Feb-18 08:00N 34°31' E 135°21'0 0.0
2018-Feb-18 07:30N 34°31' E 135°21'0 0.0
2018-Feb-18 07:00N 34°31' E 135°21'0 0.0
2018-Feb-18 06:30N 34°31' E 135°21'0 0.0
2018-Feb-18 06:00N 34°31' E 135°21'0 0.0
2018-Feb-18 05:30N 34°31' E 135°21'0 0.1
2018-Feb-18 05:00N 34°31' E 135°21'0 0.1
2018-Feb-18 04:30N 34°31' E 135°21'0 0.0
2018-Feb-18 04:00N 34°31' E 135°21'0 0.0
2018-Feb-18 03:30N 34°31' E 135°21'0 0.0
2018-Feb-18 03:00N 34°31' E 135°21'0 0.0
2018-Feb-18 02:30N 34°31' E 135°21'0 0.0
2018-Feb-18 01:57N 34°31' E 135°21'0 0.0
2018-Feb-18 01:30N 34°31' E 135°21'0 0.0
2018-Feb-18 01:00N 34°31' E 135°21'0 0.0
2018-Feb-18 00:30N 34°31' E 135°21'0 0.0
2018-Feb-18 00:00N 34°31' E 135°21'0 0.0
2018-Feb-17 23:30N 34°31' E 135°21'0 0.1
2018-Feb-17 23:00N 34°31' E 135°21'0 0.0
2018-Feb-17 22:30N 34°31' E 135°21'0 0.0
2018-Feb-17 22:00N 34°31' E 135°21'0 0.0
2018-Feb-17 21:30N 34°31' E 135°21'0 0.0
2018-Feb-17 21:00N 34°31' E 135°21'0 0.0
2018-Feb-17 20:27N 34°31' E 135°21'0 0.0
2018-Feb-17 20:00N 34°31' E 135°21'0 0.0
2018-Feb-17 19:30N 34°31' E 135°21'0 0.0
2018-Feb-17 19:00N 34°31' E 135°21'0 0.0
2018-Feb-17 18:30N 34°31' E 135°21'0 0.0
2018-Feb-17 18:00N 34°31' E 135°21'0 0.0
2018-Feb-17 17:30N 34°31' E 135°21'0 0.0
2018-Feb-17 17:00N 34°31' E 135°21'0 0.0
2018-Feb-17 16:30N 34°31' E 135°21'0 0.0
2018-Feb-17 16:00N 34°31' E 135°21'0 0.1
2018-Feb-17 15:30N 34°31' E 135°21'0 0.1
2018-Feb-17 15:00N 34°31' E 135°21'0 0.1
2018-Feb-17 14:30N 34°31' E 135°21'0 0.0
2018-Feb-17 14:00N 34°31' E 135°21'0 0.0
2018-Feb-17 13:30N 34°31' E 135°21'0 0.0
2018-Feb-17 13:00N 34°31' E 135°21'0 0.0
2018-Feb-17 12:30N 34°31' E 135°21'0 0.0
2018-Feb-17 12:00N 34°31' E 135°21'0 0.0
2018-Feb-17 11:30N 34°31' E 135°21'0 0.0
2018-Feb-17 11:00N 34°31' E 135°21'0 0.0
2018-Feb-17 10:30N 34°31' E 135°21'0 0.0
2018-Feb-17 10:00N 34°31' E 135°21'0 0.0
2018-Feb-17 09:30N 34°31' E 135°21'0 0.0
2018-Feb-17 09:00N 34°31' E 135°21'0 0.0
2018-Feb-17 08:30N 34°31' E 135°21'0 0.0
2018-Feb-17 08:00N 34°31' E 135°21'0 0.0
2018-Feb-17 07:30N 34°31' E 135°21'0 0.0
2018-Feb-17 06:57N 34°31' E 135°21'0 0.0
2018-Feb-17 06:30N 34°31' E 135°21'0 0.0
2018-Feb-17 06:00N 34°31' E 135°21'0 0.1
2018-Feb-17 05:30N 34°31' E 135°21'0 0.0
2018-Feb-17 05:00N 34°31' E 135°21'0 0.0
2018-Feb-17 04:30N 34°31' E 135°21'0 0.0
2018-Feb-17 04:00N 34°31' E 135°21'0 0.0
2018-Feb-17 03:30N 34°31' E 135°21'0 0.0
2018-Feb-17 03:00N 34°31' E 135°21'0 0.0
2018-Feb-17 02:30N 34°31' E 135°21'0 0.0
2018-Feb-17 02:00N 34°31' E 135°21'0 0.0
2018-Feb-17 01:30N 34°31' E 135°21'0 0.0
2018-Feb-17 01:00N 34°31' E 135°21'0 0.0
2018-Feb-17 00:30N 34°31' E 135°21'0 0.0
2018-Feb-17 00:00N 34°31' E 135°21'0 0.1
2018-Feb-16 23:30N 34°31' E 135°21'0 0.0
2018-Feb-16 23:00N 34°31' E 135°21'0 0.0
2018-Feb-16 22:30N 34°31' E 135°21'0 0.0
2018-Feb-16 22:00N 34°31' E 135°21'0 0.0
2018-Feb-16 21:30N 34°31' E 135°21'0 0.1
2018-Feb-16 21:00N 34°31' E 135°21'0 0.0
2018-Feb-16 20:30N 34°31' E 135°21'0 0.1
2018-Feb-16 19:57N 34°31' E 135°21'0 0.0
2018-Feb-16 19:30N 34°31' E 135°21'0 0.1
2018-Feb-16 19:00N 34°31' E 135°21'0 0.0
2018-Feb-16 18:30N 34°31' E 135°21'0 0.0
2018-Feb-16 18:00N 34°31' E 135°21'0 0.0
2018-Feb-16 17:30N 34°31' E 135°21'0 0.0
2018-Feb-16 17:00N 34°31' E 135°21'0 0.0
2018-Feb-16 16:30N 34°31' E 135°21'0 0.0
2018-Feb-16 16:00N 34°31' E 135°21'0 0.0
2018-Feb-16 15:30N 34°31' E 135°21'0 0.0
2018-Feb-16 15:00N 34°31' E 135°21'0 0.0
2018-Feb-16 14:30N 34°31' E 135°21'0 0.0
2018-Feb-16 14:00N 34°31' E 135°21'0 0.0
2018-Feb-16 13:29N 34°31' E 135°21'0 0.0
2018-Feb-16 13:00N 34°31' E 135°21'0 0.0
2018-Feb-16 12:30N 34°31' E 135°21'0 0.0
2018-Feb-16 12:00N 34°31' E 135°21'0 0.0
2018-Feb-16 11:30N 34°31' E 135°21'0 0.0
2018-Feb-16 11:00N 34°31' E 135°21'0 0.1
2018-Feb-16 10:30N 34°31' E 135°21'0 0.1
2018-Feb-16 10:00N 34°31' E 135°21'0 0.0
2018-Feb-16 09:29N 34°31' E 135°21'0 0.1
2018-Feb-16 09:00N 34°31' E 135°21'0 0.0
2018-Feb-16 08:30N 34°31' E 135°21'0 0.0
2018-Feb-16 07:59N 34°31' E 135°21'0 0.0
2018-Feb-16 07:30N 34°31' E 135°21'0 0.0
2018-Feb-16 07:00N 34°31' E 135°21'0 0.1
2018-Feb-16 06:30N 34°31' E 135°21'0 0.6
2018-Feb-16 06:00N 34°31' E 135°21'4 7.3
2018-Feb-16 05:30N 34°33' E 135°25'0 0.6
2018-Feb-16 04:55N 34°33' E 135°25'0 0.0
2018-Feb-16 04:25N 34°33' E 135°25'0 0.0
2018-Feb-16 03:58N 34°33' E 135°25'0 0.0
2018-Feb-16 03:28N 34°33' E 135°25'0 0.0
2018-Feb-16 02:58N 34°33' E 135°25'0 0.0
2018-Feb-16 02:28N 34°33' E 135°25'0 0.0
2018-Feb-16 01:58N 34°33' E 135°25'0 0.0
2018-Feb-16 01:28N 34°33' E 135°25'0 0.0
2018-Feb-16 00:58N 34°33' E 135°25'0 0.0
2018-Feb-16 00:28N 34°33' E 135°25'0 0.0
2018-Feb-15 23:58N 34°33' E 135°25'0 0.0
2018-Feb-15 23:28N 34°33' E 135°25'1 1.8
2018-Feb-15 23:00N 34°33' E 135°25'4 8.0
2018-Feb-15 22:31N 34°31' E 135°21'0 0.1
2018-Feb-15 22:00N 34°31' E 135°21'0 0.0
2018-Feb-15 21:30N 34°31' E 135°21'0 0.0
2018-Feb-15 21:00N 34°31' E 135°21'0 0.0
2018-Feb-15 20:30N 34°31' E 135°21'0 0.0
2018-Feb-15 20:00N 34°31' E 135°21'0 0.0
2018-Feb-15 19:30N 34°31' E 135°21'0 0.0
2018-Feb-15 19:00N 34°31' E 135°21'0 0.0
2018-Feb-15 18:30N 34°31' E 135°21'0 0.0
2018-Feb-15 18:00N 34°31' E 135°21'0 0.0
2018-Feb-15 17:30N 34°31' E 135°21'0 0.0
2018-Feb-15 17:00N 34°31' E 135°21'0 0.0
2018-Feb-15 16:30N 34°31' E 135°21'0 0.0
2018-Feb-15 16:00N 34°31' E 135°21'0 0.0
2018-Feb-15 15:30N 34°31' E 135°21'0 0.0
2018-Feb-15 15:00N 34°31' E 135°21'0 0.0
2018-Feb-15 14:30N 34°31' E 135°21'0 0.0
2018-Feb-15 14:00N 34°31' E 135°21'0 0.0
2018-Feb-15 13:30N 34°31' E 135°21'0 0.0
2018-Feb-15 12:57N 34°31' E 135°21'0 0.0
2018-Feb-15 12:30N 34°31' E 135°21'0 0.0
2018-Feb-15 12:00N 34°31' E 135°21'0 0.0
2018-Feb-15 11:27N 34°31' E 135°21'0 0.0
2018-Feb-15 11:00N 34°31' E 135°21'0 0.0
2018-Feb-15 10:30N 34°31' E 135°21'0 0.0
2018-Feb-15 10:00N 34°31' E 135°21'0 0.0
2018-Feb-15 09:30N 34°31' E 135°21'0 0.2
2018-Feb-15 09:00N 34°31' E 135°21'0 0.1
2018-Feb-15 08:30N 34°31' E 135°21'0 0.0
2018-Feb-15 07:57N 34°31' E 135°21'0 0.0
2018-Feb-15 07:30N 34°31' E 135°21'0 0.0
2018-Feb-15 07:00N 34°31' E 135°21'0 0.0
2018-Feb-15 06:24N 34°31' E 135°21'0 0.2
2018-Feb-15 06:00N 34°31' E 135°21'0 0.1
2018-Feb-15 05:30N 34°31' E 135°21'4 7.3
2018-Feb-15 05:00N 34°29' E 135°17'612.9
2018-Feb-15 04:30N 34°26' E 135°10'3 6.9
2018-Feb-15 04:00N 34°25' E 135°14'0 0.3
2018-Feb-15 03:28N 34°25' E 135°14'0 0.0
2018-Feb-15 02:58N 34°25' E 135°14'0 0.0
2018-Feb-15 02:28N 34°25' E 135°14'0 0.0
2018-Feb-15 01:58N 34°25' E 135°14'0 0.0
2018-Feb-15 01:28N 34°25' E 135°14'0 0.0
2018-Feb-15 00:58N 34°25' E 135°14'0 0.0
2018-Feb-15 00:28N 34°25' E 135°14'0 0.4
2018-Feb-15 00:00N 34°25' E 135°14'3 5.5
2018-Feb-14 23:30N 34°25' E 135°11'2 4.0
2018-Feb-14 22:59N 34°24' E 135°09'0 0.0
2018-Feb-14 22:29N 34°24' E 135°09'0 0.0
2018-Feb-14 21:59N 34°24' E 135°09'0 0.0
2018-Feb-14 21:29N 34°24' E 135°09'0 0.0
2018-Feb-14 20:59N 34°24' E 135°09'0 0.0
2018-Feb-14 20:29N 34°24' E 135°09'0 0.0
2018-Feb-14 19:59N 34°24' E 135°09'0 0.1
2018-Feb-14 19:29N 34°24' E 135°09'0 0.1
2018-Feb-14 18:59N 34°24' E 135°09'0 0.0
2018-Feb-14 18:29N 34°24' E 135°09'0 0.0
2018-Feb-14 17:59N 34°24' E 135°09'0 0.0
2018-Feb-14 17:29N 34°24' E 135°09'0 0.4
2018-Feb-14 17:00N 34°24' E 135°09'611.1
2018-Feb-14 16:30N 34°29' E 135°06'713.5
2018-Feb-14 16:00N 34°35' E 135°03'612.8
2018-Feb-14 15:30N 34°36' E 134°55'713.5
2018-Feb-14 15:01N 34°33' E 134°48'612.5
2018-Feb-14 14:31N 34°31' E 134°41'612.4
2018-Feb-14 14:00N 34°28' E 134°34'612.1
2018-Feb-14 13:30N 34°26' E 134°27'612.0
2018-Feb-14 13:00N 34°24' E 134°21'611.9
2018-Feb-14 12:31N 34°24' E 134°13'2 0.1
2018-Feb-13 11:26N 34°24' E 134°16'612.5
2018-Feb-13 10:59N 34°25' E 134°23'612.8
2018-Feb-13 10:30N 34°28' E 134°30'612.2
2018-Feb-13 10:00N 34°30' E 134°37'612.0
2018-Feb-13 09:30N 34°32' E 134°43'612.0
2018-Feb-13 09:01N 34°35' E 134°50'612.2
2018-Feb-13 08:30N 34°37' E 134°57'510.5
2018-Feb-13 08:00N 34°36' E 135°03'510.5
2018-Feb-13 07:30N 34°32' E 135°07'611.8
2018-Feb-13 07:00N 34°26' E 135°09'4 8.1
2018-Feb-13 06:31N 34°25' E 135°14'0 1.0
2018-Feb-13 06:00N 34°25' E 135°14'0 0.0
2018-Feb-13 05:30N 34°25' E 135°14'0 0.0
2018-Feb-13 05:00N 34°25' E 135°14'0 0.0
2018-Feb-13 04:30N 34°25' E 135°14'0 0.0
2018-Feb-13 04:00N 34°25' E 135°14'0 0.0
2018-Feb-13 03:30N 34°25' E 135°14'0 0.0
2018-Feb-13 02:57N 34°25' E 135°14'0 0.0
2018-Feb-13 02:27N 34°25' E 135°14'0 0.0
2018-Feb-13 02:00N 34°25' E 135°14'0 0.6
2018-Feb-13 01:30N 34°25' E 135°14'3 6.8
2018-Feb-13 01:00N 34°26' E 135°10'611.3
2018-Feb-13 00:30N 34°29' E 135°16'4 9.0
2018-Feb-13 00:00N 34°31' E 135°21'0 0.2
2018-Feb-12 23:29N 34°31' E 135°21'0 0.0
2018-Feb-12 23:00N 34°31' E 135°21'0 0.0
2018-Feb-12 22:29N 34°31' E 135°21'0 0.0
2018-Feb-12 21:56N 34°31' E 135°21'0 0.0
2018-Feb-12 21:29N 34°31' E 135°21'0 0.0
2018-Feb-12 20:59N 34°31' E 135°21'0 0.0
2018-Feb-12 20:30N 34°31' E 135°21'0 0.0
2018-Feb-12 19:59N 34°31' E 135°21'0 0.0
2018-Feb-12 19:29N 34°31' E 135°21'0 0.0
2018-Feb-12 18:56N 34°31' E 135°21'0 0.0
2018-Feb-12 18:26N 34°31' E 135°21'0 0.0
2018-Feb-12 17:59N 34°31' E 135°21'0 0.0
2018-Feb-12 17:29N 34°31' E 135°21'0 0.0
2018-Feb-12 16:59N 34°31' E 135°21'0 0.0
2018-Feb-12 16:26N 34°31' E 135°21'0 0.1
2018-Feb-12 15:59N 34°31' E 135°21'0 0.0
2018-Feb-12 15:17N 34°31' E 135°21'0 0.0
2018-Feb-12 14:59N 34°31' E 135°21'0 0.0
2018-Feb-12 14:29N 34°31' E 135°21'  

Dump ship's entire track history